sensor_id;sensor_type;location;lat;lon;timestamp;pressure;altitude;pressure_sealevel;temperature;humidity
40245;BME280;25963;42.694;23.600;2023-07-31T00:01:42;94855.00;;;25.03;91.89
40245;BME280;25963;42.694;23.600;2023-07-31T00:04:08;94847.34;;;24.71;95.14
40245;BME280;25963;42.694;23.600;2023-07-31T00:06:33;94832.44;;;24.65;94.97
40245;BME280;25963;42.694;23.600;2023-07-31T00:08:58;94844.84;;;24.74;96.29
40245;BME280;25963;42.694;23.600;2023-07-31T00:11:24;94836.72;;;24.66;96.80
40245;BME280;25963;42.694;23.600;2023-07-31T00:13:49;94845.91;;;24.65;96.31
40245;BME280;25963;42.694;23.600;2023-07-31T00:16:15;94846.41;;;24.67;94.10
40245;BME280;25963;42.694;23.600;2023-07-31T00:18:40;94843.34;;;24.51;95.78
40245;BME280;25963;42.694;23.600;2023-07-31T00:21:05;94852.84;;;24.48;95.72
40245;BME280;25963;42.694;23.600;2023-07-31T00:23:31;94838.59;;;24.48;97.18
40245;BME280;25963;42.694;23.600;2023-07-31T00:25:56;94855.19;;;24.41;97.99
40245;BME280;25963;42.694;23.600;2023-07-31T00:28:22;94847.25;;;24.36;98.20
40245;BME280;25963;42.694;23.600;2023-07-31T00:30:47;94845.13;;;24.24;95.93
40245;BME280;25963;42.694;23.600;2023-07-31T00:33:13;94850.84;;;24.31;94.99
40245;BME280;25963;42.694;23.600;2023-07-31T00:35:38;94858.13;;;24.53;94.76
40245;BME280;25963;42.694;23.600;2023-07-31T00:38:03;94846.34;;;24.49;92.79
40245;BME280;25963;42.694;23.600;2023-07-31T00:40:29;94849.31;;;24.39;92.55
40245;BME280;25963;42.694;23.600;2023-07-31T00:42:54;94823.91;;;24.31;92.46
40245;BME280;25963;42.694;23.600;2023-07-31T00:45:21;94816.28;;;24.25;93.44
40245;BME280;25963;42.694;23.600;2023-07-31T00:47:48;94801.88;;;24.29;93.14
40245;BME280;25963;42.694;23.600;2023-07-31T00:50:14;94805.19;;;24.26;94.06
40245;BME280;25963;42.694;23.600;2023-07-31T00:52:40;94795.06;;;24.41;93.24
40245;BME280;25963;42.694;23.600;2023-07-31T00:55:05;94787.94;;;24.36;92.05
40245;BME280;25963;42.694;23.600;2023-07-31T00:57:32;94801.16;;;24.46;93.24
40245;BME280;25963;42.694;23.600;2023-07-31T00:59:58;94800.06;;;24.47;93.90
40245;BME280;25963;42.694;23.600;2023-07-31T01:02:24;94790.78;;;24.31;93.19
40245;BME280;25963;42.694;23.600;2023-07-31T01:04:49;94786.78;;;24.20;94.65
40245;BME280;25963;42.694;23.600;2023-07-31T01:07:20;94817.88;;;24.34;95.12
40245;BME280;25963;42.694;23.600;2023-07-31T01:09:59;94817.03;;;24.17;94.92
40245;BME280;25963;42.694;23.600;2023-07-31T01:12:27;94828.00;;;24.29;94.27
40245;BME280;25963;42.694;23.600;2023-07-31T01:17:26;94789.88;;;24.04;95.00
40245;BME280;25963;42.694;23.600;2023-07-31T01:19:51;94778.03;;;24.05;94.07
40245;BME280;25963;42.694;23.600;2023-07-31T01:22:53;94783.00;;;24.21;93.51
40245;BME280;25963;42.694;23.600;2023-07-31T01:28:25;94762.00;;;24.00;93.28
40245;BME280;25963;42.694;23.600;2023-07-31T01:30:54;94778.63;;;23.94;94.20
40245;BME280;25963;42.694;23.600;2023-07-31T01:33:20;94763.84;;;23.82;93.64
40245;BME280;25963;42.694;23.600;2023-07-31T01:35:48;94776.19;;;23.83;94.40
40245;BME280;25963;42.694;23.600;2023-07-31T01:38:13;94783.94;;;23.76;94.51
40245;BME280;25963;42.694;23.600;2023-07-31T01:40:42;94792.84;;;23.63;95.64
40245;BME280;25963;42.694;23.600;2023-07-31T01:43:08;94778.41;;;23.59;95.17
40245;BME280;25963;42.694;23.600;2023-07-31T01:45:33;94773.47;;;23.52;95.17
40245;BME280;25963;42.694;23.600;2023-07-31T01:47:59;94771.75;;;23.56;94.07
40245;BME280;25963;42.694;23.600;2023-07-31T01:50:24;94756.09;;;23.58;94.96
40245;BME280;25963;42.694;23.600;2023-07-31T01:52:49;94755.53;;;23.70;94.45
40245;BME280;25963;42.694;23.600;2023-07-31T01:55:15;94760.47;;;23.54;95.23
40245;BME280;25963;42.694;23.600;2023-07-31T01:57:40;94778.59;;;23.62;94.70
40245;BME280;25963;42.694;23.600;2023-07-31T02:00:06;94787.91;;;23.56;95.09
40245;BME280;25963;42.694;23.600;2023-07-31T02:02:32;94770.13;;;23.46;94.93
40245;BME280;25963;42.694;23.600;2023-07-31T02:04:58;94787.44;;;23.63;94.86
40245;BME280;25963;42.694;23.600;2023-07-31T02:07:23;94788.50;;;23.53;95.23
40245;BME280;25963;42.694;23.600;2023-07-31T02:09:49;94777.16;;;23.34;94.79
40245;BME280;25963;42.694;23.600;2023-07-31T02:12:14;94802.81;;;23.62;94.64
40245;BME280;25963;42.694;23.600;2023-07-31T02:14:40;94801.25;;;23.39;94.66
40245;BME280;25963;42.694;23.600;2023-07-31T02:17:06;94803.03;;;23.43;95.35
40245;BME280;25963;42.694;23.600;2023-07-31T02:19:31;94808.25;;;23.40;95.40
40245;BME280;25963;42.694;23.600;2023-07-31T02:21:57;94805.66;;;23.12;96.62
40245;BME280;25963;42.694;23.600;2023-07-31T02:24:23;94790.53;;;23.02;97.29
40245;BME280;25963;42.694;23.600;2023-07-31T02:26:49;94810.97;;;23.26;96.61
40245;BME280;25963;42.694;23.600;2023-07-31T02:29:14;94801.00;;;23.27;96.54
40245;BME280;25963;42.694;23.600;2023-07-31T02:31:39;94816.78;;;23.19;97.15
40245;BME280;25963;42.694;23.600;2023-07-31T02:34:05;94820.47;;;23.23;97.00
40245;BME280;25963;42.694;23.600;2023-07-31T02:36:30;94819.31;;;23.16;97.58
40245;BME280;25963;42.694;23.600;2023-07-31T02:38:56;94811.63;;;23.09;98.22
40245;BME280;25963;42.694;23.600;2023-07-31T02:41:21;94819.13;;;23.35;97.32
40245;BME280;25963;42.694;23.600;2023-07-31T02:43:47;94815.09;;;23.46;96.84
40245;BME280;25963;42.694;23.600;2023-07-31T02:46:12;94805.53;;;23.17;97.96
40245;BME280;25963;42.694;23.600;2023-07-31T02:48:37;94808.97;;;23.32;97.88
40245;BME280;25963;42.694;23.600;2023-07-31T02:51:03;94794.84;;;23.26;97.34
40245;BME280;25963;42.694;23.600;2023-07-31T02:53:28;94800.56;;;23.33;96.22
40245;BME280;25963;42.694;23.600;2023-07-31T02:55:54;94806.00;;;23.42;95.80
40245;BME280;25963;42.694;23.600;2023-07-31T02:58:19;94819.41;;;23.33;96.51
40245;BME280;25963;42.694;23.600;2023-07-31T03:00:45;94804.03;;;23.25;96.45
40245;BME280;25963;42.694;23.600;2023-07-31T03:03:10;94822.97;;;23.42;96.44
40245;BME280;25963;42.694;23.600;2023-07-31T03:05:36;94821.31;;;23.33;96.42
40245;BME280;25963;42.694;23.600;2023-07-31T03:08:01;94827.25;;;23.43;96.67
40245;BME280;25963;42.694;23.600;2023-07-31T03:10:27;94810.81;;;23.22;96.63
40245;BME280;25963;42.694;23.600;2023-07-31T03:12:52;94837.97;;;23.57;96.26
40245;BME280;25963;42.694;23.600;2023-07-31T03:15:18;94826.47;;;23.43;96.37
40245;BME280;25963;42.694;23.600;2023-07-31T03:17:43;94825.84;;;23.46;96.37
40245;BME280;25963;42.694;23.600;2023-07-31T03:20:09;94836.97;;;23.53;96.65
40245;BME280;25963;42.694;23.600;2023-07-31T03:22:35;94826.47;;;23.43;97.40
40245;BME280;25963;42.694;23.600;2023-07-31T03:25:01;94832.81;;;23.47;97.33
40245;BME280;25963;42.694;23.600;2023-07-31T03:27:27;94834.41;;;23.48;96.66
40245;BME280;25963;42.694;23.600;2023-07-31T03:29:52;94836.91;;;23.67;95.11
40245;BME280;25963;42.694;23.600;2023-07-31T03:32:18;94822.16;;;23.64;94.91
40245;BME280;25963;42.694;23.600;2023-07-31T03:34:43;94813.06;;;23.52;95.40
40245;BME280;25963;42.694;23.600;2023-07-31T03:37:09;94830.28;;;23.51;95.20
40245;BME280;25963;42.694;23.600;2023-07-31T03:39:35;94835.91;;;23.18;96.79
40245;BME280;25963;42.694;23.600;2023-07-31T03:42:00;94825.22;;;23.04;97.62
40245;BME280;25963;42.694;23.600;2023-07-31T03:44:26;94836.75;;;23.18;98.82
40245;BME280;25963;42.694;23.600;2023-07-31T03:46:51;94846.47;;;23.28;98.16
40245;BME280;25963;42.694;23.600;2023-07-31T03:49:17;94834.59;;;22.93;99.96
40245;BME280;25963;42.694;23.600;2023-07-31T03:51:42;94841.38;;;23.04;99.92
40245;BME280;25963;42.694;23.600;2023-07-31T03:54:08;94840.00;;;23.15;100.00
40245;BME280;25963;42.694;23.600;2023-07-31T03:56:33;94842.13;;;23.18;99.73
40245;BME280;25963;42.694;23.600;2023-07-31T03:58:59;94856.16;;;23.15;100.00
40245;BME280;25963;42.694;23.600;2023-07-31T04:01:24;94835.91;;;23.18;100.00
40245;BME280;25963;42.694;23.600;2023-07-31T04:03:50;94841.88;;;23.29;100.00
40245;BME280;25963;42.694;23.600;2023-07-31T04:06:15;94834.66;;;23.38;99.21
40245;BME280;25963;42.694;23.600;2023-07-31T04:08:46;94824.69;;;23.38;99.69
40245;BME280;25963;42.694;23.600;2023-07-31T04:11:11;94855.09;;;23.61;100.00
40245;BME280;25963;42.694;23.600;2023-07-31T04:13:38;94849.19;;;23.59;100.00
40245;BME280;25963;42.694;23.600;2023-07-31T04:16:03;94863.78;;;23.81;99.54
40245;BME280;25963;42.694;23.600;2023-07-31T04:18:29;94845.69;;;23.73;99.41
40245;BME280;25963;42.694;23.600;2023-07-31T04:20:56;94850.19;;;23.86;98.17
40245;BME280;25963;42.694;23.600;2023-07-31T04:23:22;94866.13;;;24.05;97.45
40245;BME280;25963;42.694;23.600;2023-07-31T04:25:47;94860.59;;;24.10;96.58
40245;BME280;25963;42.694;23.600;2023-07-31T04:28:12;94854.97;;;24.20;95.87
40245;BME280;25963;42.694;23.600;2023-07-31T04:30:38;94848.50;;;24.30;96.53
40245;BME280;25963;42.694;23.600;2023-07-31T04:33:04;94846.69;;;24.17;96.63
40245;BME280;25963;42.694;23.600;2023-07-31T04:35:29;94866.69;;;24.24;96.57
40245;BME280;25963;42.694;23.600;2023-07-31T04:37:55;94859.31;;;24.07;95.71
40245;BME280;25963;42.694;23.600;2023-07-31T04:40:20;94846.00;;;24.11;95.03
40245;BME280;25963;42.694;23.600;2023-07-31T04:42:46;94858.69;;;24.10;95.22
40245;BME280;25963;42.694;23.600;2023-07-31T04:45:11;94858.03;;;23.74;94.92
40245;BME280;25963;42.694;23.600;2023-07-31T04:47:37;94850.28;;;24.03;94.46
40245;BME280;25963;42.694;23.600;2023-07-31T04:50:02;94843.88;;;24.30;95.12
40245;BME280;25963;42.694;23.600;2023-07-31T04:52:28;94857.78;;;24.55;96.44
40245;BME280;25963;42.694;23.600;2023-07-31T04:54:53;94848.91;;;24.14;97.52
40245;BME280;25963;42.694;23.600;2023-07-31T04:57:18;94852.66;;;24.05;98.49
40245;BME280;25963;42.694;23.600;2023-07-31T04:59:44;94872.25;;;24.28;99.36
40245;BME280;25963;42.694;23.600;2023-07-31T05:02:12;94863.47;;;24.13;99.43
40245;BME280;25963;42.694;23.600;2023-07-31T05:04:38;94862.13;;;23.94;100.00
40245;BME280;25963;42.694;23.600;2023-07-31T05:07:04;94853.53;;;23.91;100.00
40245;BME280;25963;42.694;23.600;2023-07-31T05:09:29;94864.53;;;24.04;100.00
40245;BME280;25963;42.694;23.600;2023-07-31T05:11:55;94858.47;;;23.98;100.00
40245;BME280;25963;42.694;23.600;2023-07-31T05:14:20;94837.25;;;24.36;100.00
40245;BME280;25963;42.694;23.600;2023-07-31T05:16:46;94844.38;;;24.90;98.53
40245;BME280;25963;42.694;23.600;2023-07-31T05:19:11;94842.16;;;24.92;99.22
40245;BME280;25963;42.694;23.600;2023-07-31T05:21:37;94843.00;;;25.18;95.91
40245;BME280;25963;42.694;23.600;2023-07-31T05:24:02;94848.25;;;25.49;99.02
40245;BME280;25963;42.694;23.600;2023-07-31T05:26:28;94859.03;;;25.49;96.05
40245;BME280;25963;42.694;23.600;2023-07-31T05:28:53;94852.22;;;25.52;94.39
40245;BME280;25963;42.694;23.600;2023-07-31T05:31:19;94836.16;;;25.56;92.08
40245;BME280;25963;42.694;23.600;2023-07-31T05:33:46;94851.06;;;25.70;93.16
40245;BME280;25963;42.694;23.600;2023-07-31T05:36:11;94855.69;;;25.53;91.97
40245;BME280;25963;42.694;23.600;2023-07-31T05:38:37;94850.72;;;25.98;91.91
40245;BME280;25963;42.694;23.600;2023-07-31T05:41:02;94845.97;;;26.33;89.10
40245;BME280;25963;42.694;23.600;2023-07-31T05:43:27;94850.16;;;26.22;88.18
40245;BME280;25963;42.694;23.600;2023-07-31T05:45:53;94846.72;;;26.04;86.57
40245;BME280;25963;42.694;23.600;2023-07-31T05:48:18;94832.25;;;26.09;87.02
40245;BME280;25963;42.694;23.600;2023-07-31T05:50:44;94842.91;;;25.96;86.91
40245;BME280;25963;42.694;23.600;2023-07-31T05:53:09;94846.44;;;25.71;85.71
40245;BME280;25963;42.694;23.600;2023-07-31T05:55:35;94836.47;;;26.27;86.02
40245;BME280;25963;42.694;23.600;2023-07-31T05:58:01;94841.91;;;26.57;84.72
40245;BME280;25963;42.694;23.600;2023-07-31T06:00:26;94855.00;;;27.47;83.42
40245;BME280;25963;42.694;23.600;2023-07-31T06:02:53;94839.19;;;28.04;76.84
40245;BME280;25963;42.694;23.600;2023-07-31T06:05:18;94843.66;;;28.82;75.67
40245;BME280;25963;42.694;23.600;2023-07-31T06:07:44;94813.91;;;29.38;72.09
40245;BME280;25963;42.694;23.600;2023-07-31T06:10:09;94844.50;;;29.10;67.83
40245;BME280;25963;42.694;23.600;2023-07-31T06:12:35;94846.53;;;29.13;68.83
40245;BME280;25963;42.694;23.600;2023-07-31T06:15:04;94842.50;;;29.07;66.93
40245;BME280;25963;42.694;23.600;2023-07-31T06:17:30;94844.84;;;29.62;65.98
40245;BME280;25963;42.694;23.600;2023-07-31T06:19:56;94836.50;;;29.98;64.99
40245;BME280;25963;42.694;23.600;2023-07-31T06:22:21;94830.75;;;30.16;59.02
40245;BME280;25963;42.694;23.600;2023-07-31T06:24:47;94835.72;;;30.77;61.08
40245;BME280;25963;42.694;23.600;2023-07-31T06:27:12;94834.53;;;31.10;58.39
40245;BME280;25963;42.694;23.600;2023-07-31T06:29:38;94824.88;;;31.12;55.96
40245;BME280;25963;42.694;23.600;2023-07-31T06:32:03;94826.41;;;30.94;56.85
40245;BME280;25963;42.694;23.600;2023-07-31T06:34:29;94839.19;;;30.27;57.65
40245;BME280;25963;42.694;23.600;2023-07-31T06:36:56;94841.31;;;29.61;61.07
40245;BME280;25963;42.694;23.600;2023-07-31T06:39:21;94854.16;;;30.05;63.79
40245;BME280;25963;42.694;23.600;2023-07-31T06:41:46;94834.09;;;29.65;65.24
40245;BME280;25963;42.694;23.600;2023-07-31T06:44:12;94847.09;;;29.60;63.82
40245;BME280;25963;42.694;23.600;2023-07-31T06:46:37;94841.75;;;29.35;62.87
40245;BME280;25963;42.694;23.600;2023-07-31T06:49:03;94843.88;;;28.77;64.07
40245;BME280;25963;42.694;23.600;2023-07-31T06:51:28;94844.50;;;28.98;64.48
40245;BME280;25963;42.694;23.600;2023-07-31T06:53:57;94846.38;;;29.34;65.83
40245;BME280;25963;42.694;23.600;2023-07-31T06:56:22;94849.41;;;29.45;61.54
40245;BME280;25963;42.694;23.600;2023-07-31T06:58:48;94853.13;;;29.81;66.21
40245;BME280;25963;42.694;23.600;2023-07-31T07:01:13;94857.81;;;30.24;58.85
40245;BME280;25963;42.694;23.600;2023-07-31T07:03:39;94847.94;;;30.04;61.90
40245;BME280;25963;42.694;23.600;2023-07-31T07:06:05;94858.28;;;29.70;60.86
40245;BME280;25963;42.694;23.600;2023-07-31T07:08:30;94846.72;;;29.61;65.32
40245;BME280;25963;42.694;23.600;2023-07-31T07:10:55;94853.31;;;29.88;57.70
40245;BME280;25963;42.694;23.600;2023-07-31T07:13:21;94865.25;;;29.84;59.94
40245;BME280;25963;42.694;23.600;2023-07-31T07:15:50;94849.03;;;29.87;59.94
40245;BME280;25963;42.694;23.600;2023-07-31T07:18:17;94853.84;;;29.78;59.79
40245;BME280;25963;42.694;23.600;2023-07-31T07:20:52;94851.47;;;30.36;59.33
40245;BME280;25963;42.694;23.600;2023-07-31T07:23:19;94844.28;;;30.44;55.98
40245;BME280;25963;42.694;23.600;2023-07-31T07:25:45;94863.00;;;30.45;56.79
40245;BME280;25963;42.694;23.600;2023-07-31T07:28:11;94854.31;;;30.12;54.00
40245;BME280;25963;42.694;23.600;2023-07-31T07:30:37;94838.53;;;30.17;57.79
40245;BME280;25963;42.694;23.600;2023-07-31T07:33:03;94851.00;;;30.18;58.06
40245;BME280;25963;42.694;23.600;2023-07-31T07:35:28;94843.66;;;30.51;59.96
40245;BME280;25963;42.694;23.600;2023-07-31T07:37:54;94840.56;;;31.00;56.06
40245;BME280;25963;42.694;23.600;2023-07-31T07:40:20;94858.91;;;31.22;53.32
40245;BME280;25963;42.694;23.600;2023-07-31T07:42:46;94864.28;;;30.36;53.27
40245;BME280;25963;42.694;23.600;2023-07-31T07:45:12;94837.66;;;30.92;54.54
40245;BME280;25963;42.694;23.600;2023-07-31T07:47:38;94853.88;;;31.05;53.63
40245;BME280;25963;42.694;23.600;2023-07-31T07:50:04;94839.72;;;30.64;53.71
40245;BME280;25963;42.694;23.600;2023-07-31T07:52:30;94850.38;;;31.04;53.71
40245;BME280;25963;42.694;23.600;2023-07-31T07:54:55;94854.78;;;30.77;52.02
40245;BME280;25963;42.694;23.600;2023-07-31T07:57:21;94852.94;;;30.97;53.85
40245;BME280;25963;42.694;23.600;2023-07-31T07:59:46;94861.50;;;31.15;48.36
40245;BME280;25963;42.694;23.600;2023-07-31T08:02:12;94864.16;;;31.31;49.49
40245;BME280;25963;42.694;23.600;2023-07-31T08:04:37;94865.72;;;31.67;51.88
40245;BME280;25963;42.694;23.600;2023-07-31T08:07:03;94852.84;;;32.49;49.70
40245;BME280;25963;42.694;23.600;2023-07-31T08:09:28;94856.53;;;32.37;48.39
40245;BME280;25963;42.694;23.600;2023-07-31T08:11:53;94853.50;;;32.00;47.13
40245;BME280;25963;42.694;23.600;2023-07-31T08:14:19;94861.97;;;31.56;46.31
40245;BME280;25963;42.694;23.600;2023-07-31T08:16:45;94854.50;;;31.33;48.90
40245;BME280;25963;42.694;23.600;2023-07-31T08:19:11;94850.69;;;31.19;46.83
40245;BME280;25963;42.694;23.600;2023-07-31T08:21:36;94864.53;;;30.62;47.80
40245;BME280;25963;42.694;23.600;2023-07-31T08:24:01;94865.28;;;29.99;50.43
40245;BME280;25963;42.694;23.600;2023-07-31T08:26:27;94855.91;;;29.69;51.98
40245;BME280;25963;42.694;23.600;2023-07-31T08:28:52;94854.69;;;30.10;52.96
40245;BME280;25963;42.694;23.600;2023-07-31T08:31:19;94861.06;;;29.86;50.66
40245;BME280;25963;42.694;23.600;2023-07-31T08:33:44;94853.97;;;29.69;54.70
40245;BME280;25963;42.694;23.600;2023-07-31T08:36:09;94865.09;;;29.92;52.85
40245;BME280;25963;42.694;23.600;2023-07-31T08:38:35;94840.91;;;30.19;52.00
40245;BME280;25963;42.694;23.600;2023-07-31T08:41:03;94853.72;;;30.66;49.46
40245;BME280;25963;42.694;23.600;2023-07-31T08:43:29;94853.53;;;31.26;49.68
40245;BME280;25963;42.694;23.600;2023-07-31T08:45:55;94859.91;;;31.14;49.15
40245;BME280;25963;42.694;23.600;2023-07-31T08:48:22;94865.94;;;31.78;45.76
40245;BME280;25963;42.694;23.600;2023-07-31T08:50:47;94860.94;;;32.22;45.46
40245;BME280;25963;42.694;23.600;2023-07-31T08:53:13;94848.94;;;31.46;45.87
40245;BME280;25963;42.694;23.600;2023-07-31T08:55:38;94844.66;;;31.29;43.93
40245;BME280;25963;42.694;23.600;2023-07-31T08:58:05;94853.84;;;30.69;47.91
40245;BME280;25963;42.694;23.600;2023-07-31T09:00:32;94846.00;;;30.84;47.05
40245;BME280;25963;42.694;23.600;2023-07-31T09:03:18;94864.44;;;30.75;49.06
40245;BME280;25963;42.694;23.600;2023-07-31T09:05:45;94862.63;;;30.47;46.61
40245;BME280;25963;42.694;23.600;2023-07-31T09:08:13;94868.31;;;30.42;48.48
40245;BME280;25963;42.694;23.600;2023-07-31T09:10:43;94859.44;;;30.13;48.33
40245;BME280;25963;42.694;23.600;2023-07-31T09:13:12;94869.19;;;30.62;45.05
40245;BME280;25963;42.694;23.600;2023-07-31T09:15:39;94857.19;;;30.47;47.62
40245;BME280;25963;42.694;23.600;2023-07-31T09:18:06;94859.22;;;30.34;46.42
40245;BME280;25963;42.694;23.600;2023-07-31T09:20:35;94860.06;;;30.38;47.08
40245;BME280;25963;42.694;23.600;2023-07-31T09:23:11;94858.66;;;30.13;47.60
40245;BME280;25963;42.694;23.600;2023-07-31T09:25:37;94852.75;;;30.11;47.57
40245;BME280;25963;42.694;23.600;2023-07-31T09:28:08;94860.28;;;30.45;48.55
40245;BME280;25963;42.694;23.600;2023-07-31T09:30:45;94854.09;;;30.64;51.44
40245;BME280;25963;42.694;23.600;2023-07-31T09:33:12;94837.22;;;30.90;47.93
40245;BME280;25963;42.694;23.600;2023-07-31T09:35:38;94848.41;;;30.69;47.85
40245;BME280;25963;42.694;23.600;2023-07-31T09:38:08;94841.97;;;30.62;46.52
40245;BME280;25963;42.694;23.600;2023-07-31T09:40:40;94842.53;;;30.52;46.68
40245;BME280;25963;42.694;23.600;2023-07-31T09:43:10;94823.25;;;30.92;49.14
40245;BME280;25963;42.694;23.600;2023-07-31T09:45:40;94831.94;;;31.72;46.23
40245;BME280;25963;42.694;23.600;2023-07-31T09:48:11;94828.25;;;31.64;42.33
40245;BME280;25963;42.694;23.600;2023-07-31T09:50:43;94841.09;;;31.83;42.08
40245;BME280;25963;42.694;23.600;2023-07-31T09:53:10;94839.25;;;31.48;43.88
40245;BME280;25963;42.694;23.600;2023-07-31T09:55:36;94832.59;;;31.46;43.53
40245;BME280;25963;42.694;23.600;2023-07-31T09:58:06;94829.00;;;31.42;41.83
40245;BME280;25963;42.694;23.600;2023-07-31T10:00:32;94828.63;;;31.43;45.91
40245;BME280;25963;42.694;23.600;2023-07-31T10:02:59;94824.53;;;31.53;44.16
40245;BME280;25963;42.694;23.600;2023-07-31T10:05:31;94826.59;;;31.21;42.23
40245;BME280;25963;42.694;23.600;2023-07-31T10:07:59;94814.56;;;30.86;45.39
40245;BME280;25963;42.694;23.600;2023-07-31T10:10:25;94826.50;;;31.17;44.76
40245;BME280;25963;42.694;23.600;2023-07-31T10:12:52;94811.56;;;31.66;43.15
40245;BME280;25963;42.694;23.600;2023-07-31T10:15:18;94820.72;;;32.42;43.33
40245;BME280;25963;42.694;23.600;2023-07-31T10:17:44;94807.50;;;32.94;41.36
40245;BME280;25963;42.694;23.600;2023-07-31T10:20:11;94817.38;;;32.29;39.48
40245;BME280;25963;42.694;23.600;2023-07-31T10:22:38;94826.97;;;31.97;39.83
40245;BME280;25963;42.694;23.600;2023-07-31T10:25:04;94817.13;;;31.73;41.60
40245;BME280;25963;42.694;23.600;2023-07-31T10:27:35;94809.97;;;31.65;41.98
40245;BME280;25963;42.694;23.600;2023-07-31T10:30:03;94819.41;;;31.48;43.31
40245;BME280;25963;42.694;23.600;2023-07-31T10:32:30;94815.84;;;31.67;41.80
40245;BME280;25963;42.694;23.600;2023-07-31T10:34:56;94807.44;;;31.17;41.78
40245;BME280;25963;42.694;23.600;2023-07-31T10:37:24;94819.53;;;31.00;40.17
40245;BME280;25963;42.694;23.600;2023-07-31T10:40:04;94812.03;;;30.93;43.69
40245;BME280;25963;42.694;23.600;2023-07-31T10:42:37;94818.13;;;31.06;39.80
40245;BME280;25963;42.694;23.600;2023-07-31T10:45:06;94800.81;;;30.99;42.27
40245;BME280;25963;42.694;23.600;2023-07-31T10:47:45;94801.66;;;30.83;42.21
40245;BME280;25963;42.694;23.600;2023-07-31T10:50:21;94811.06;;;30.86;41.83
40245;BME280;25963;42.694;23.600;2023-07-31T10:52:53;94798.00;;;31.30;41.09
40245;BME280;25963;42.694;23.600;2023-07-31T10:55:24;94801.97;;;31.17;39.71
40245;BME280;25963;42.694;23.600;2023-07-31T10:57:51;94804.94;;;31.08;40.35
40245;BME280;25963;42.694;23.600;2023-07-31T11:00:28;94790.53;;;31.66;44.64
40245;BME280;25963;42.694;23.600;2023-07-31T11:08:26;94781.22;;;32.59;37.19
40245;BME280;25963;42.694;23.600;2023-07-31T11:13:26;94762.63;;;33.25;37.73
40245;BME280;25963;42.694;23.600;2023-07-31T11:15:51;94767.16;;;33.78;37.92
40245;BME280;25963;42.694;23.600;2023-07-31T11:18:17;94770.72;;;33.48;36.65
40245;BME280;25963;42.694;23.600;2023-07-31T11:20:43;94773.03;;;33.46;36.18
40245;BME280;25963;42.694;23.600;2023-07-31T11:23:10;94769.00;;;32.76;37.24
40245;BME280;25963;42.694;23.600;2023-07-31T11:25:36;94767.53;;;32.82;35.88
40245;BME280;25963;42.694;23.600;2023-07-31T11:28:12;94771.63;;;32.69;37.76
40245;BME280;25963;42.694;23.600;2023-07-31T11:30:39;94769.66;;;32.69;37.47
40245;BME280;25963;42.694;23.600;2023-07-31T11:33:06;94764.41;;;32.84;37.07
40245;BME280;25963;42.694;23.600;2023-07-31T11:35:47;94780.50;;;32.62;38.09
40245;BME280;25963;42.694;23.600;2023-07-31T11:38:26;94776.16;;;32.35;37.01
40245;BME280;25963;42.694;23.600;2023-07-31T11:40:53;94769.53;;;32.13;35.03
40245;BME280;25963;42.694;23.600;2023-07-31T11:43:19;94764.28;;;32.00;36.96
40245;BME280;25963;42.694;23.600;2023-07-31T11:45:50;94749.59;;;31.86;37.82
40245;BME280;25963;42.694;23.600;2023-07-31T11:48:23;94773.72;;;31.83;39.70
40245;BME280;25963;42.694;23.600;2023-07-31T11:50:50;94775.69;;;31.25;38.93
40245;BME280;25963;42.694;23.600;2023-07-31T11:53:20;94767.31;;;31.33;40.53
40245;BME280;25963;42.694;23.600;2023-07-31T11:55:47;94759.75;;;32.08;43.04
40245;BME280;25963;42.694;23.600;2023-07-31T11:58:14;94751.75;;;32.72;39.64
40245;BME280;25963;42.694;23.600;2023-07-31T12:00:40;94753.22;;;33.23;38.58
40245;BME280;25963;42.694;23.600;2023-07-31T12:03:06;94743.53;;;33.62;36.55
40245;BME280;25963;42.694;23.600;2023-07-31T12:05:32;94754.38;;;34.37;35.59
40245;BME280;25963;42.694;23.600;2023-07-31T12:07:57;94742.22;;;34.86;33.08
40245;BME280;25963;42.694;23.600;2023-07-31T12:13:00;94718.59;;;34.64;31.95
40245;BME280;25963;42.694;23.600;2023-07-31T12:15:35;94733.72;;;34.43;33.39
40245;BME280;25963;42.694;23.600;2023-07-31T12:18:12;94741.56;;;35.11;32.59
40245;BME280;25963;42.694;23.600;2023-07-31T12:20:44;94729.69;;;34.85;31.53
40245;BME280;25963;42.694;23.600;2023-07-31T12:23:14;94721.03;;;34.21;32.29
40245;BME280;25963;42.694;23.600;2023-07-31T12:25:40;94737.19;;;33.51;33.49
40245;BME280;25963;42.694;23.600;2023-07-31T12:28:06;94713.63;;;33.06;34.34
40245;BME280;25963;42.694;23.600;2023-07-31T12:30:37;94733.09;;;33.04;35.27
40245;BME280;25963;42.694;23.600;2023-07-31T12:33:13;94726.13;;;32.80;34.22
40245;BME280;25963;42.694;23.600;2023-07-31T12:35:48;94738.47;;;32.17;36.24
40245;BME280;25963;42.694;23.600;2023-07-31T12:38:14;94740.50;;;32.24;35.73
40245;BME280;25963;42.694;23.600;2023-07-31T12:40:41;94734.56;;;32.18;35.33
40245;BME280;25963;42.694;23.600;2023-07-31T12:43:07;94730.06;;;32.29;37.39
40245;BME280;25963;42.694;23.600;2023-07-31T12:45:33;94711.72;;;32.53;36.07
40245;BME280;25963;42.694;23.600;2023-07-31T12:47:59;94714.81;;;32.25;34.67
40245;BME280;25963;42.694;23.600;2023-07-31T12:50:25;94714.38;;;31.54;35.77
40245;BME280;25963;42.694;23.600;2023-07-31T12:52:51;94731.25;;;32.05;37.42
40245;BME280;25963;42.694;23.600;2023-07-31T12:55:17;94716.34;;;32.49;35.07
40245;BME280;25963;42.694;23.600;2023-07-31T12:57:44;94706.03;;;33.26;35.17
40245;BME280;25963;42.694;23.600;2023-07-31T13:00:10;94700.91;;;33.54;34.73
40245;BME280;25963;42.694;23.600;2023-07-31T13:02:36;94694.09;;;32.77;33.15
40245;BME280;25963;42.694;23.600;2023-07-31T13:05:02;94693.03;;;33.15;34.08